New Auburn, Wisconsin
Current Conditions -  °F | °C
As of 6:35 AM on Thursday 29 Jan 2015 (Local Time) from KY23 Reporting Station
Unknown Precip Unknown Precip  
Wind Chill: 24°   Ceiling: 1100
Heat Index: 31°   Visibility: 7mi
Dew Point: 28°   Wind: 8mph
Humidity: 90%   Direction: 300°WNW
Pressure: 29.95"   Gusts: NA
Location:  45.2°N, 91.56°W
Report Text: KY23 291235Z AUTO 30007KT 7SM UP OVC011 00/M02 A2995 RMK AO2 T10051020
Loading
Personal Weather Stations






























Interactive Weather Map New forecast layout! Learn more

10-Day Weather Forecast

Advertisements
Track Severe Weather on mobile